Airfield :
LOGIN :

Register | Disclaimer

   EN    FR    IT 

 










Legend :    VFR   Marginal VFR   IFR   Intensive IFR   Very Intensive IFR
Visi :
Ceiling :
>= 8 km
>= 3000ft
5 to 8 km
1000 to 3000 ft
1500m to 5 km
500 to 1000 ft
800 to 1500m
200 to 500 ft
< 800m
< 200 ft
Symbols :   Thunderstorms  Fog  Heavy snow  Heavy precipitations  Wind > 20 kt
SIGMETs :     Misc.  Thunderstorms  Icing  Turbulence  Mountain Waves  Volcanic Ashes







- Airport Elevation : 479 ft
- IATA code : DOL
- Download approach charts


LFRG - Deauville

CURRENT METAR :
  • 170530Z AUTO 25015G25KT 9999 FEW010/// BKN017/// OVC025/// ///TCU 05/04 Q1006 TEMPO 31018G35KT 3000 SHRAGS BKN015CB

EXPIRED METARs :
  • 170500Z AUTO 23010KT 200V260 9999 BKN022/// BKN042/// ///CB 05/03 Q1006
  • 170430Z AUTO 22011KT 9999 BKN024/// ///TCU 05/04 Q1006
  • 170400Z AUTO 22008KT 9999 FEW021 BKN027 BKN050 05/03 Q1006
  • 170330Z AUTO 24010KT 200V260 9999 FEW018/// BKN024/// BKN032/// ///TCU 05/03 Q1006
  • 170300Z AUTO 24012KT 210V270 6000 RA BKN017/// BKN027/// BKN041/// ///CB 05/04 Q1006

TAF AMD TAF LFRG
Valid from the 17 at 06:00 until the 17 at 15:00 UTC


170519Z 1706/1715 24012KT 9999 BKN030
BECMG 1706/1707 31015G25KT
TEMPO 1706/1714 4000 SHRA BKN020CB
PROB30
TEMPO 1706/1713 31018G35KT 3000 TSRAGS BKN015CB
BECMG 1713/1715 34013KT
ATIS : +33 2 31 65 65 36
No reported NOTAMs for that airfield.



MET'MAP, your aeronautical weather chart ! - Copyright ORBIFLY December 2007 - Disclaimer

ORBIFLY MET'MAP TEAM :

Programming & Development : Alexandra Zaïnal
Concept & Development : Baudouin d'Aumeries
Co-Development & Prog : Marc-Olivier Méhu
Technical & hardware support : Manuel Goepfert

Contact : metmap@orbifly.com




SOURCES & CREDITS :

   NOAA